Time;durP1;ratioP1;P1;durP2;ratioP2;P2;SDS_P1;SDS_P2;PMS_P1;PMS_P2;Temp;Humidity;BMP_temperature;BMP_pressure;BME280_temperature;BME280_humidity;BME280_pressure;Samples;Min_cycle;Max_cycle;Signal;HPM_P1;HPM_P2
2022/01/30 00:21:42;;;;;;;23.83;16.10;;;;;;;;;;4552168;28;20516;-60
2022/01/30 00:24:04;;;;;;;21.33;16.73;;;;;;;;;;4208841;34;20160;-61
2022/01/30 00:26:33;;;;;;;21.98;16.40;;;;;;;;;;4219109;33;20209;-61
2022/01/30 00:28:59;;;;;;;20.30;15.85;;;;;;;;;;4217633;34;20124;-66
2022/01/30 00:31:26;;;;;;;18.75;15.70;;;;;;;;;;4228467;33;20533;-60
2022/01/30 00:33:53;;;;;;;20.25;15.82;;;;;;;;;;4227683;33;20140;-61
2022/01/30 00:36:19;;;;;;;19.40;16.20;;;;;;;;;;4217321;34;20176;-60
2022/01/30 00:38:45;;;;;;;20.42;16.00;;;;;;;;;;4222736;33;20101;-61
2022/01/30 00:41:12;;;;;;;22.62;16.55;;;;;;;;;;4219013;33;20135;-66
2022/01/30 00:43:38;;;;;;;17.60;15.25;;;;;;;;;;4233938;33;20085;-67
2022/01/30 00:46:04;;;;;;;19.20;14.43;;;;;;;;;;4233561;33;20101;-67
2022/01/30 00:48:30;;;;;;;20.50;15.57;;;;;;;;;;4233644;33;20553;-66
2022/01/30 00:50:56;;;;;;;19.27;14.48;;;;;;;;;;4233353;33;20533;-66
2022/01/30 00:53:22;;;;;;;19.58;14.05;;;;;;;;;;4233725;33;20136;-67
2022/01/30 00:55:48;;;;;;;17.58;14.18;;;;;;;;;;4228046;33;20094;-66
2022/01/30 00:58:14;;;;;;;17.52;14.68;;;;;;;;;;4219614;34;20131;-66
2022/01/30 01:00:41;;;;;;;17.02;14.18;;;;;;;;;;4219370;34;20181;-66
2022/01/30 01:03:07;;;;;;;16.40;13.25;;;;;;;;;;4219379;34;20178;-66
2022/01/30 01:05:34;;;;;;;16.30;13.07;;;;;;;;;;4219481;34;20145;-67
2022/01/30 01:08:09;;;;;;;15.25;12.75;;;;;;;;;;4219364;34;20518;-67
2022/01/30 01:23:49;;;;;;;16.55;12.77;;;;;;;;;;4219424;34;20093;-60
2022/01/30 01:26:16;;;;;;;15.63;12.55;;;;;;;;;;4219073;34;20569;-61
2022/01/30 01:28:42;;;;;;;18.37;13.43;;;;;;;;;;4219333;34;20117;-61
2022/01/30 01:31:08;;;;;;;18.37;13.40;;;;;;;;;;4219112;34;20106;-60
2022/01/30 01:34:38;;;;;;;17.00;13.40;;;;;;;;;;4219264;34;20128;-60
2022/01/30 01:36:30;;;;;;;19.05;13.43;;;;;;;;;;4203167;34;20209;-60
2022/01/30 01:38:56;;;;;;;16.17;13.23;;;;;;;;;;4219264;34;20124;-61
2022/01/30 01:41:24;;;;;;;17.12;13.48;;;;;;;;;;4219143;34;20163;-61
2022/01/30 01:43:50;;;;;;;18.05;13.05;;;;;;;;;;4219164;34;20109;-61
2022/01/30 01:46:21;;;;;;;17.23;13.40;;;;;;;;;;4218898;34;20113;-61
2022/01/30 01:48:50;;;;;;;16.02;12.80;;;;;;;;;;4219180;34;20570;-61
2022/01/30 01:51:20;;;;;;;17.40;13.50;;;;;;;;;;4218766;34;20595;-61
2022/01/30 01:53:47;;;;;;;18.75;14.57;;;;;;;;;;4205466;34;20113;-60
2022/01/30 01:56:15;;;;;;;15.15;12.60;;;;;;;;;;4224335;33;20172;-61
2022/01/30 01:58:41;;;;;;;16.73;13.32;;;;;;;;;;4233070;33;20183;-61
2022/01/30 02:01:07;;;;;;;17.05;13.23;;;;;;;;;;4232813;33;20136;-61
2022/01/30 02:03:37;;;;;;;16.75;13.30;;;;;;;;;;4233054;33;21014;-60
2022/01/30 02:06:06;;;;;;;18.42;13.27;;;;;;;;;;4232817;33;20549;-61
2022/01/30 02:11:04;;;;;;;16.62;12.88;;;;;;;;;;4232859;33;20112;-61
2022/01/30 02:26:59;;;;;;;16.35;12.68;;;;;;;;;;4218727;34;20117;-60
2022/01/30 02:29:25;;;;;;;15.85;11.63;;;;;;;;;;4218728;34;20129;-59
2022/01/30 02:31:55;;;;;;;19.27;12.82;;;;;;;;;;4218518;34;20549;-59
2022/01/30 02:34:26;;;;;;;17.55;12.85;;;;;;;;;;4206139;34;20112;-59
2022/01/30 02:36:54;;;;;;;20.08;12.95;;;;;;;;;;4218567;34;20208;-60
2022/01/30 02:39:20;;;;;;;21.77;14.43;;;;;;;;;;4218282;34;20302;-61
2022/01/30 02:41:47;;;;;;;19.10;13.55;;;;;;;;;;4218507;34;20117;-60
2022/01/30 02:44:22;;;;;;;18.85;14.05;;;;;;;;;;4218449;34;20145;-60
2022/01/30 02:46:51;;;;;;;17.30;14.07;;;;;;;;;;4218647;34;20100;-60
2022/01/30 02:52:08;;;;;;;18.55;14.55;;;;;;;;;;4205297;34;20117;-60
2022/01/30 02:54:34;;;;;;;20.27;14.98;;;;;;;;;;4218483;34;20112;-60
2022/01/30 02:57:00;;;;;;;19.17;15.38;;;;;;;;;;4218307;34;20541;-61
2022/01/30 02:59:27;;;;;;;20.73;16.33;;;;;;;;;;4218400;34;20204;-61
2022/01/30 03:01:53;;;;;;;20.52;15.20;;;;;;;;;;4218294;34;20595;-61
2022/01/30 03:04:19;;;;;;;20.42;15.30;;;;;;;;;;4218201;34;20117;-61
2022/01/30 03:06:46;;;;;;;19.62;14.35;;;;;;;;;;4205443;34;20126;-60
2022/01/30 03:09:12;;;;;;;21.10;14.95;;;;;;;;;;4218454;34;20672;-61
2022/01/30 03:11:38;;;;;;;20.83;15.20;;;;;;;;;;4205374;34;20204;-61
2022/01/30 03:14:06;;;;;;;20.15;14.95;;;;;;;;;;4218312;34;20204;-61
2022/01/30 03:16:32;;;;;;;19.92;14.77;;;;;;;;;;4218207;34;20086;-61
2022/01/30 03:19:00;;;;;;;19.12;14.70;;;;;;;;;;4218250;34;20538;-61
2022/01/30 03:21:26;;;;;;;19.73;15.68;;;;;;;;;;4218327;34;20104;-61
2022/01/30 03:23:52;;;;;;;22.67;15.80;;;;;;;;;;4212011;34;20128;-61
2022/01/30 03:26:18;;;;;;;22.10;14.57;;;;;;;;;;4218198;34;20541;-61
2022/01/30 03:28:46;;;;;;;21.85;15.43;;;;;;;;;;4218178;34;20518;-61
2022/01/30 03:31:13;;;;;;;20.02;14.55;;;;;;;;;;4218204;34;20196;-60
2022/01/30 03:33:39;;;;;;;18.60;14.80;;;;;;;;;;4218208;34;20105;-60
2022/01/30 03:36:06;;;;;;;20.12;14.70;;;;;;;;;;4228384;33;20754;-61
2022/01/30 03:38:33;;;;;;;18.17;13.88;;;;;;;;;;4218147;34;20125;-60
2022/01/30 03:40:59;;;;;;;17.77;13.98;;;;;;;;;;4218118;34;20105;-60
2022/01/30 03:43:25;;;;;;;16.60;14.20;;;;;;;;;;4217994;34;20132;-61
2022/01/30 03:45:51;;;;;;;19.12;14.05;;;;;;;;;;4218029;34;20121;-61
2022/01/30 03:48:17;;;;;;;18.55;13.95;;;;;;;;;;4217975;34;20610;-61
2022/01/30 03:50:44;;;;;;;20.05;14.80;;;;;;;;;;4217877;34;20125;-60
2022/01/30 03:53:11;;;;;;;17.55;13.62;;;;;;;;;;4217816;34;20887;-61
2022/01/30 03:55:38;;;;;;;17.17;13.70;;;;;;;;;;4217906;34;20441;-58
2022/01/30 03:58:05;;;;;;;16.85;12.82;;;;;;;;;;4217838;34;20193;-59
2022/01/30 04:00:32;;;;;;;18.58;14.50;;;;;;;;;;4217978;34;20513;-60
2022/01/30 04:02:58;;;;;;;16.58;13.57;;;;;;;;;;4217871;34;20129;-60
2022/01/30 04:05:24;;;;;;;18.40;13.32;;;;;;;;;;4217924;34;20120;-60
2022/01/30 04:07:50;;;;;;;19.73;14.68;;;;;;;;;;4204611;34;20197;-60
2022/01/30 04:10:16;;;;;;;17.15;13.68;;;;;;;;;;4217043;34;20117;-59
2022/01/30 04:12:43;;;;;;;18.60;13.65;;;;;;;;;;4216120;34;20464;-60
2022/01/30 04:15:09;;;;;;;16.85;13.88;;;;;;;;;;4216364;34;20120;-60
2022/01/30 04:17:35;;;;;;;21.75;14.00;;;;;;;;;;4205519;34;20198;-61
2022/01/30 04:20:02;;;;;;;18.52;13.40;;;;;;;;;;4218622;34;20131;-60
2022/01/30 04:22:28;;;;;;;17.95;13.43;;;;;;;;;;4228578;33;20114;-60
2022/01/30 04:24:54;;;;;;;19.80;15.00;;;;;;;;;;4218377;34;20600;-61
2022/01/30 04:27:20;;;;;;;17.90;13.43;;;;;;;;;;4218042;34;20540;-61
2022/01/30 04:29:48;;;;;;;18.75;14.27;;;;;;;;;;4210689;34;20112;-61
2022/01/30 04:32:15;;;;;;;17.55;13.18;;;;;;;;;;4218290;34;20121;-59
2022/01/30 04:34:43;;;;;;;19.75;13.98;;;;;;;;;;4218382;34;20101;-60
2022/01/30 04:37:22;;;;;;;19.60;14.13;;;;;;;;;;4218322;34;20106;-60
2022/01/30 04:40:41;;;;;;;17.02;13.40;;;;;;;;;;4206742;34;20446;-59
2022/01/30 04:58:53;;;;;;;19.17;14.98;;;;;;;;;;4219080;34;20110;-60
2022/01/30 05:01:57;;;;;;;17.70;14.63;;;;;;;;;;4218038;34;20110;-60
2022/01/30 05:09:25;;;;;;;17.25;14.27;;;;;;;;;;4205556;34;20529;-61
2022/01/30 05:11:51;;;;;;;17.80;14.25;;;;;;;;;;4204923;34;20102;-59
2022/01/30 05:14:20;;;;;;;19.98;14.70;;;;;;;;;;4205766;34;20565;-58
2022/01/30 05:16:47;;;;;;;18.48;13.98;;;;;;;;;;4205907;34;20105;-59
2022/01/30 05:19:14;;;;;;;18.62;14.02;;;;;;;;;;4205304;34;20102;-60
2022/01/30 05:21:40;;;;;;;19.58;14.27;;;;;;;;;;4205341;34;20113;-60
2022/01/30 05:24:07;;;;;;;18.60;14.48;;;;;;;;;;4213679;34;20105;-60
2022/01/30 05:26:33;;;;;;;18.37;14.57;;;;;;;;;;4218981;34;20125;-65
2022/01/30 05:29:00;;;;;;;18.50;13.90;;;;;;;;;;4205701;34;20106;-64
2022/01/30 05:31:26;;;;;;;18.45;14.00;;;;;;;;;;4218815;34;20538;-66
2022/01/30 05:33:52;;;;;;;20.95;14.63;;;;;;;;;;4218890;34;20201;-64
2022/01/30 05:36:20;;;;;;;19.40;14.85;;;;;;;;;;4218508;34;20116;-62
2022/01/30 05:38:46;;;;;;;19.70;15.10;;;;;;;;;;4219086;34;20111;-63
2022/01/30 05:41:13;;;;;;;18.05;14.23;;;;;;;;;;4217719;34;20224;-64
2022/01/30 05:43:40;;;;;;;19.95;15.60;;;;;;;;;;4218259;34;20109;-63
2022/01/30 05:46:13;;;;;;;17.87;14.95;;;;;;;;;;4217372;34;20109;-61
2022/01/30 05:48:40;;;;;;;17.90;14.43;;;;;;;;;;4199260;34;20094;-67
2022/01/30 05:51:06;;;;;;;21.08;15.82;;;;;;;;;;4217668;34;20128;-67
2022/01/30 05:53:32;;;;;;;18.58;14.65;;;;;;;;;;4219162;34;20121;-67
2022/01/30 05:55:58;;;;;;;19.40;15.68;;;;;;;;;;4218519;34;20117;-66
2022/01/30 05:58:24;;;;;;;19.80;15.15;;;;;;;;;;4218464;34;20105;-66
2022/01/30 06:00:50;;;;;;;21.85;15.95;;;;;;;;;;4218798;34;20101;-64
2022/01/30 06:03:16;;;;;;;20.73;14.50;;;;;;;;;;4213332;34;20501;-63
2022/01/30 06:05:45;;;;;;;19.20;15.30;;;;;;;;;;4211235;34;20135;-64
2022/01/30 06:08:15;;;;;;;19.62;15.38;;;;;;;;;;4215915;34;20089;-64
2022/01/30 06:10:42;;;;;;;20.70;13.60;;;;;;;;;;4217012;34;20598;-63
2022/01/30 06:13:08;;;;;;;22.48;14.95;;;;;;;;;;4217422;34;20205;-63
2022/01/30 06:15:34;;;;;;;22.13;16.10;;;;;;;;;;4218960;34;20127;-63
2022/01/30 06:18:00;;;;;;;20.85;15.48;;;;;;;;;;4216993;34;20271;-63
2022/01/30 06:20:26;;;;;;;21.70;16.40;;;;;;;;;;4216802;34;20105;-62
2022/01/30 06:22:52;;;;;;;20.85;15.90;;;;;;;;;;4218209;34;20533;-64
2022/01/30 06:25:18;;;;;;;19.73;14.35;;;;;;;;;;4219074;34;20204;-64
2022/01/30 06:27:44;;;;;;;19.58;14.18;;;;;;;;;;4204948;34;20430;-63
2022/01/30 06:30:10;;;;;;;20.67;15.23;;;;;;;;;;4218623;34;20106;-63
2022/01/30 06:32:36;;;;;;;21.58;15.57;;;;;;;;;;4218533;34;20520;-63
2022/01/30 06:35:03;;;;;;;22.37;16.52;;;;;;;;;;4218544;34;20191;-64
2022/01/30 06:37:31;;;;;;;18.48;14.82;;;;;;;;;;4218603;34;20105;-63
2022/01/30 06:39:57;;;;;;;21.02;14.77;;;;;;;;;;4218319;34;20113;-62
2022/01/30 06:42:23;;;;;;;19.52;15.80;;;;;;;;;;4218867;34;20434;-63
2022/01/30 06:44:50;;;;;;;20.45;15.52;;;;;;;;;;4210965;34;20517;-64
2022/01/30 06:47:16;;;;;;;22.45;16.45;;;;;;;;;;4217774;34;20133;-63
2022/01/30 06:49:42;;;;;;;19.42;15.35;;;;;;;;;;4217668;34;20509;-63
2022/01/30 06:52:11;;;;;;;20.98;15.20;;;;;;;;;;4216949;34;20122;-63
2022/01/30 06:54:37;;;;;;;21.12;15.90;;;;;;;;;;4217088;34;20188;-63
2022/01/30 06:57:04;;;;;;;21.83;16.67;;;;;;;;;;4218172;34;20126;-63
2022/01/30 06:59:30;;;;;;;20.90;16.67;;;;;;;;;;4218023;34;20114;-63
2022/01/30 07:01:56;;;;;;;22.83;17.98;;;;;;;;;;4217842;34;20132;-64
2022/01/30 07:04:22;;;;;;;24.90;17.12;;;;;;;;;;4217551;34;20089;-63
2022/01/30 07:06:48;;;;;;;19.37;15.57;;;;;;;;;;4218144;34;20109;-63
2022/01/30 07:09:14;;;;;;;19.75;15.05;;;;;;;;;;4217398;34;20248;-63
2022/01/30 07:11:40;;;;;;;19.35;15.00;;;;;;;;;;4217665;34;20225;-64
2022/01/30 07:14:06;;;;;;;18.98;15.25;;;;;;;;;;4218230;34;20192;-63
2022/01/30 07:16:32;;;;;;;19.77;15.38;;;;;;;;;;4218456;34;20127;-63
2022/01/30 07:18:58;;;;;;;18.48;15.35;;;;;;;;;;4217976;34;20121;-63
2022/01/30 07:21:24;;;;;;;19.87;14.85;;;;;;;;;;4218150;34;20116;-63
2022/01/30 07:23:50;;;;;;;19.48;14.02;;;;;;;;;;4218445;34;20101;-64
2022/01/30 07:26:17;;;;;;;18.08;14.15;;;;;;;;;;4218366;34;20109;-63
2022/01/30 07:28:43;;;;;;;19.87;15.25;;;;;;;;;;4204911;34;20132;-63
2022/01/30 07:31:09;;;;;;;18.62;14.70;;;;;;;;;;4217892;34;20209;-65
2022/01/30 07:33:35;;;;;;;20.12;15.75;;;;;;;;;;4209957;34;20483;-66
2022/01/30 07:36:02;;;;;;;19.85;15.05;;;;;;;;;;4203302;34;20125;-64
2022/01/30 07:38:29;;;;;;;17.35;13.55;;;;;;;;;;4205195;34;20125;-64
2022/01/30 07:40:55;;;;;;;19.52;14.38;;;;;;;;;;4217680;34;20204;-63
2022/01/30 07:43:21;;;;;;;19.08;14.40;;;;;;;;;;4216184;34;20085;-63
2022/01/30 07:45:47;;;;;;;17.55;13.55;;;;;;;;;;4218029;34;20462;-68
2022/01/30 07:48:15;;;;;;;20.23;13.55;;;;;;;;;;4217909;34;20505;-71
2022/01/30 07:50:41;;;;;;;22.08;14.52;;;;;;;;;;4216607;34;20122;-67
2022/01/30 07:53:08;;;;;;;21.40;16.92;;;;;;;;;;4216792;34;20102;-65
2022/01/30 07:55:34;;;;;;;28.08;18.87;;;;;;;;;;4217709;34;20184;-65
2022/01/30 07:58:00;;;;;;;23.08;18.27;;;;;;;;;;4217277;34;20108;-64
2022/01/30 08:00:26;;;;;;;24.17;18.37;;;;;;;;;;4215139;34;20109;-65
2022/01/30 08:02:52;;;;;;;25.95;18.30;;;;;;;;;;4216713;34;20791;-63
2022/01/30 08:05:18;;;;;;;21.55;15.82;;;;;;;;;;4216892;34;20124;-66
2022/01/30 08:07:44;;;;;;;19.75;15.95;;;;;;;;;;4216017;34;20113;-66
2022/01/30 08:10:10;;;;;;;20.02;16.42;;;;;;;;;;4217222;34;20102;-67
2022/01/30 08:12:38;;;;;;;21.60;17.25;;;;;;;;;;4217368;34;20132;-67
2022/01/30 08:15:05;;;;;;;20.88;16.58;;;;;;;;;;4218189;34;20137;-66
2022/01/30 08:17:33;;;;;;;19.02;15.00;;;;;;;;;;4217307;34;20506;-65
2022/01/30 08:19:59;;;;;;;17.95;15.07;;;;;;;;;;4218572;33;20132;-63
2022/01/30 08:22:29;;;;;;;17.87;14.32;;;;;;;;;;4210032;33;20125;-65
2022/01/30 08:24:55;;;;;;;21.80;17.25;;;;;;;;;;4223129;33;20130;-65
2022/01/30 08:27:21;;;;;;;19.15;14.48;;;;;;;;;;4220564;33;20126;-65
2022/01/30 08:29:47;;;;;;;18.95;14.68;;;;;;;;;;4216260;34;20114;-69
2022/01/30 08:32:13;;;;;;;15.80;12.52;;;;;;;;;;4214584;34;20125;-67
2022/01/30 08:34:40;;;;;;;14.63;11.88;;;;;;;;;;4216571;34;20137;-68
2022/01/30 08:37:06;;;;;;;17.08;12.82;;;;;;;;;;4216674;34;20561;-68
2022/01/30 08:39:33;;;;;;;15.32;12.20;;;;;;;;;;4217331;34;20113;-67
2022/01/30 08:42:00;;;;;;;13.82;11.82;;;;;;;;;;4216048;34;20120;-71
2022/01/30 08:44:26;;;;;;;14.70;11.45;;;;;;;;;;4204255;34;20115;-66
2022/01/30 08:46:52;;;;;;;14.95;11.12;;;;;;;;;;4215177;34;20118;-67
2022/01/30 08:49:18;;;;;;;15.02;10.55;;;;;;;;;;4203353;34;20110;-67
2022/01/30 08:51:44;;;;;;;15.40;11.75;;;;;;;;;;4212034;34;20122;-62
2022/01/30 08:54:10;;;;;;;16.95;12.50;;;;;;;;;;4212681;34;20133;-64
2022/01/30 08:56:36;;;;;;;21.85;16.10;;;;;;;;;;4215150;34;20106;-63
2022/01/30 08:59:02;;;;;;;27.70;19.75;;;;;;;;;;4214666;34;20129;-64
2022/01/30 09:01:32;;;;;;;29.35;20.62;;;;;;;;;;4215787;34;20086;-63
2022/01/30 09:03:59;;;;;;;28.83;18.85;;;;;;;;;;4219180;34;20090;-63
2022/01/30 09:06:26;;;;;;;26.55;17.95;;;;;;;;;;4216488;33;20109;-63
2022/01/30 09:08:52;;;;;;;25.77;19.08;;;;;;;;;;4210287;34;20132;-63
2022/01/30 09:11:18;;;;;;;27.60;19.95;;;;;;;;;;4216524;33;20117;-63
2022/01/30 09:13:44;;;;;;;19.08;14.02;;;;;;;;;;4216204;34;20601;-64
2022/01/30 09:16:10;;;;;;;15.45;13.07;;;;;;;;;;4218723;33;20461;-63
2022/01/30 09:18:38;;;;;;;15.65;13.25;;;;;;;;;;4218781;34;20130;-63
2022/01/30 09:21:04;;;;;;;18.80;12.80;;;;;;;;;;4218822;34;20188;-63
2022/01/30 09:23:31;;;;;;;17.33;13.27;;;;;;;;;;4218794;34;20090;-63
2022/01/30 09:25:57;;;;;;;16.40;13.55;;;;;;;;;;4217202;34;20122;-63
2022/01/30 09:28:23;;;;;;;15.38;12.95;;;;;;;;;;4218482;34;20097;-67
2022/01/30 09:30:49;;;;;;;20.37;13.40;;;;;;;;;;4217893;34;20106;-67
2022/01/30 09:33:15;;;;;;;16.98;13.52;;;;;;;;;;4212864;34;20121;-66
2022/01/30 09:35:42;;;;;;;13.38;11.55;;;;;;;;;;4203131;34;20109;-67
2022/01/30 09:38:08;;;;;;;14.87;11.38;;;;;;;;;;4209693;34;20106;-65
2022/01/30 09:40:34;;;;;;;14.77;11.57;;;;;;;;;;4218567;34;20131;-64
2022/01/30 09:43:00;;;;;;;14.32;11.20;;;;;;;;;;4218660;34;20137;-66
2022/01/30 09:45:27;;;;;;;15.18;11.40;;;;;;;;;;4219080;34;20117;-65
2022/01/30 09:47:54;;;;;;;12.77;9.23;;;;;;;;;;4202944;34;20417;-66
2022/01/30 09:50:21;;;;;;;12.40;10.45;;;;;;;;;;4205595;34;20543;-62
2022/01/30 09:52:47;;;;;;;17.98;11.35;;;;;;;;;;4220503;33;20208;-62
2022/01/30 09:55:15;;;;;;;14.95;10.18;;;;;;;;;;4225251;33;20213;-63
2022/01/30 09:57:43;;;;;;;10.30;8.68;;;;;;;;;;4218128;34;20140;-62
2022/01/30 10:00:10;;;;;;;13.73;10.10;;;;;;;;;;4218505;34;20587;-62
2022/01/30 10:02:36;;;;;;;12.90;9.88;;;;;;;;;;4218256;34;20137;-62
2022/01/30 10:05:02;;;;;;;15.18;10.77;;;;;;;;;;4218744;34;20141;-62
2022/01/30 10:07:43;;;;;;;12.60;10.13;;;;;;;;;;4218835;34;20526;-61
2022/01/30 10:10:13;;;;;;;12.93;9.52;;;;;;;;;;4218860;34;20129;-61
2022/01/30 10:13:06;;;;;;;12.45;10.15;;;;;;;;;;4218778;34;20125;-65
2022/01/30 10:15:52;;;;;;;26.00;19.40;;;;;;;;;;4206053;34;20143;-72
2022/01/30 10:18:20;;;;;;;27.45;20.67;;;;;;;;;;4193184;34;20121;-72
2022/01/30 10:20:46;;;;;;;30.08;22.15;;;;;;;;;;4204620;34;20301;-69
2022/01/30 10:23:13;;;;;;;32.03;22.95;;;;;;;;;;4204672;34;20185;-71
2022/01/30 10:25:50;;;;;;;32.33;22.55;;;;;;;;;;4204403;34;20200;-71
2022/01/30 10:28:28;;;;;;;32.53;22.05;;;;;;;;;;4186780;34;20748;-72
2022/01/30 10:31:02;;;;;;;31.73;23.15;;;;;;;;;;4209920;34;20125;-67
2022/01/30 10:33:40;;;;;;;31.00;23.17;;;;;;;;;;4217342;34;20148;-67
2022/01/30 10:36:09;;;;;;;33.90;24.08;;;;;;;;;;4217392;33;20123;-68
2022/01/30 10:38:41;;;;;;;30.17;24.25;;;;;;;;;;4208229;34;20628;-69
2022/01/30 10:41:17;;;;;;;31.55;22.10;;;;;;;;;;4225775;33;20096;-67
2022/01/30 10:44:01;;;;;;;30.95;22.98;;;;;;;;;;4216707;34;20118;-67
2022/01/30 10:46:30;;;;;;;31.55;21.27;;;;;;;;;;4215887;33;20115;-67
2022/01/30 10:49:01;;;;;;;34.03;22.58;;;;;;;;;;4206959;34;20220;-68
2022/01/30 10:51:29;;;;;;;26.25;21.05;;;;;;;;;;4192324;34;20093;-68
2022/01/30 10:54:08;;;;;;;30.08;21.33;;;;;;;;;;4218160;33;20113;-68
2022/01/30 10:56:34;;;;;;;30.23;22.73;;;;;;;;;;4216237;34;20099;-66
2022/01/30 10:59:24;;;;;;;31.92;21.70;;;;;;;;;;4214245;34;20102;-68
2022/01/30 11:01:51;;;;;;;28.20;20.62;;;;;;;;;;4198977;34;20176;-67
2022/01/30 11:04:22;;;;;;;31.55;22.80;;;;;;;;;;4219802;33;20124;-70
2022/01/30 11:06:48;;;;;;;32.25;22.52;;;;;;;;;;4207139;34;20216;-66
2022/01/30 11:09:19;;;;;;;31.02;22.25;;;;;;;;;;4203513;34;20216;-67
2022/01/30 11:11:51;;;;;;;28.87;22.25;;;;;;;;;;4221706;33;20197;-69
2022/01/30 11:14:20;;;;;;;29.02;22.45;;;;;;;;;;4203094;34;20685;-70
2022/01/30 11:17:03;;;;;;;32.92;24.55;;;;;;;;;;4203331;34;20525;-68
2022/01/30 11:19:32;;;;;;;32.33;22.17;;;;;;;;;;4192951;34;20102;-69
2022/01/30 11:22:00;;;;;;;29.65;22.35;;;;;;;;;;4191128;34;20129;-68
2022/01/30 11:24:27;;;;;;;33.53;24.17;;;;;;;;;;4203996;34;20109;-69
2022/01/30 11:26:54;;;;;;;33.63;25.12;;;;;;;;;;4180191;34;20102;-75
2022/01/30 11:29:21;;;;;;;31.33;24.20;;;;;;;;;;4180203;34;20173;-76
2022/01/30 11:31:48;;;;;;;31.42;23.55;;;;;;;;;;4179266;34;20121;-72
2022/01/30 11:34:14;;;;;;;32.38;23.35;;;;;;;;;;4204294;34;20106;-74
2022/01/30 11:36:42;;;;;;;36.20;25.42;;;;;;;;;;4207793;33;20498;-74
2022/01/30 11:39:14;;;;;;;34.10;25.33;;;;;;;;;;4204821;34;20189;-74
2022/01/30 11:41:40;;;;;;;34.08;25.45;;;;;;;;;;4217378;33;21094;-74
2022/01/30 11:44:18;;;;;;;34.17;25.35;;;;;;;;;;4204005;34;20106;-77
2022/01/30 11:46:58;;;;;;;34.72;25.40;;;;;;;;;;4202241;34;20133;-72
2022/01/30 11:49:38;;;;;;;34.42;25.92;;;;;;;;;;4204222;34;20125;-73
2022/01/30 11:52:06;;;;;;;32.47;25.52;;;;;;;;;;4204034;34;20113;-75
2022/01/30 11:54:33;;;;;;;31.67;23.85;;;;;;;;;;4191466;34;20234;-72
2022/01/30 11:56:59;;;;;;;32.83;22.85;;;;;;;;;;4191028;34;20121;-72
2022/01/30 11:59:37;;;;;;;31.37;23.30;;;;;;;;;;4205534;33;20129;-75
2022/01/30 12:02:32;;;;;;;29.55;22.90;;;;;;;;;;4193580;34;20685;-72
2022/01/30 12:05:03;;;;;;;32.30;22.87;;;;;;;;;;4217913;34;20105;-71
2022/01/30 12:07:44;;;;;;;30.20;22.60;;;;;;;;;;4206375;34;20100;-74
2022/01/30 12:10:16;;;;;;;28.70;22.00;;;;;;;;;;4205413;33;20106;-72
2022/01/30 12:12:55;;;;;;;27.85;20.95;;;;;;;;;;4230669;33;20109;-74
2022/01/30 12:15:40;;;;;;;26.75;21.25;;;;;;;;;;4209275;33;20224;-75
2022/01/30 12:18:20;;;;;;;26.77;20.92;;;;;;;;;;4218235;33;20117;-77
2022/01/30 12:21:01;;;;;;;32.22;21.95;;;;;;;;;;4216721;33;20113;-75
2022/01/30 12:23:37;;;;;;;28.17;21.35;;;;;;;;;;4202592;34;20162;-78
2022/01/30 12:26:06;;;;;;;28.50;20.85;;;;;;;;;;4202691;34;20565;-77
2022/01/30 12:28:50;;;;;;;32.65;22.73;;;;;;;;;;4202849;34;20822;-77
2022/01/30 12:31:38;;;;;;;32.63;23.98;;;;;;;;;;4209874;34;20132;-77
2022/01/30 12:34:08;;;;;;;31.85;24.25;;;;;;;;;;4200178;34;20124;-77
2022/01/30 12:36:38;;;;;;;31.08;22.67;;;;;;;;;;4202291;34;20098;-77
2022/01/30 12:39:15;;;;;;;28.62;21.80;;;;;;;;;;4214943;34;20198;-77
2022/01/30 12:41:41;;;;;;;29.25;22.90;;;;;;;;;;4192448;34;20101;-74
2022/01/30 12:44:09;;;;;;;29.45;22.92;;;;;;;;;;4198910;34;20524;-73
2022/01/30 12:46:48;;;;;;;30.70;24.10;;;;;;;;;;4204488;34;20474;-73
2022/01/30 12:49:18;;;;;;;32.47;23.15;;;;;;;;;;4214017;34;20122;-74
2022/01/30 12:51:49;;;;;;;31.75;22.90;;;;;;;;;;4205224;34;20125;-72
2022/01/30 12:54:16;;;;;;;29.63;22.77;;;;;;;;;;4204785;34;20609;-71
2022/01/30 12:56:42;;;;;;;31.95;23.95;;;;;;;;;;4205906;34;20118;-72
2022/01/30 12:59:08;;;;;;;33.20;23.67;;;;;;;;;;4205838;34;20218;-71
2022/01/30 13:01:42;;;;;;;30.30;22.75;;;;;;;;;;4218915;34;20205;-72
2022/01/30 13:04:11;;;;;;;32.60;24.50;;;;;;;;;;4206411;34;20097;-73
2022/01/30 13:06:40;;;;;;;33.08;24.83;;;;;;;;;;4217910;34;20117;-72
2022/01/30 13:09:07;;;;;;;35.38;25.77;;;;;;;;;;4195124;34;20094;-72
2022/01/30 13:11:33;;;;;;;29.87;23.92;;;;;;;;;;4217644;33;20121;-69
2022/01/30 13:14:02;;;;;;;30.90;23.10;;;;;;;;;;4219369;34;20197;-73
2022/01/30 13:16:33;;;;;;;30.83;22.83;;;;;;;;;;4206323;34;20114;-72
2022/01/30 13:18:59;;;;;;;33.40;23.33;;;;;;;;;;4219372;34;20201;-73
2022/01/30 13:21:29;;;;;;;33.75;23.38;;;;;;;;;;4206296;34;20498;-76
2022/01/30 13:23:55;;;;;;;32.35;23.92;;;;;;;;;;4219638;34;20523;-67
2022/01/30 13:26:38;;;;;;;31.92;23.00;;;;;;;;;;4219091;34;20276;-68
2022/01/30 13:29:11;;;;;;;28.70;21.08;;;;;;;;;;4213008;34;20141;-67
2022/01/30 13:31:37;;;;;;;29.27;21.30;;;;;;;;;;4205043;34;20113;-68
2022/01/30 13:34:13;;;;;;;28.98;21.30;;;;;;;;;;4218099;34;20117;-68
2022/01/30 13:36:40;;;;;;;30.50;21.12;;;;;;;;;;4218596;34;20528;-68
2022/01/30 13:39:11;;;;;;;29.48;21.10;;;;;;;;;;4218470;34;20500;-69
2022/01/30 13:41:47;;;;;;;30.25;21.60;;;;;;;;;;4206135;34;20090;-68
2022/01/30 13:44:24;;;;;;;28.65;21.92;;;;;;;;;;4219041;34;20097;-67
2022/01/30 13:47:03;;;;;;;32.00;21.35;;;;;;;;;;4218826;34;20113;-67
2022/01/30 13:49:30;;;;;;;28.35;21.00;;;;;;;;;;4217924;34;20113;-68
2022/01/30 13:52:07;;;;;;;31.73;21.50;;;;;;;;;;4205657;34;20117;-68
2022/01/30 13:54:33;;;;;;;32.20;22.33;;;;;;;;;;4218654;34;20104;-67
2022/01/30 13:57:04;;;;;;;30.58;21.42;;;;;;;;;;4204710;34;20514;-67
2022/01/30 13:59:30;;;;;;;30.50;22.75;;;;;;;;;;4219053;34;20102;-68
2022/01/30 14:01:58;;;;;;;31.30;22.65;;;;;;;;;;4218217;34;20441;-66
2022/01/30 14:04:24;;;;;;;28.30;21.70;;;;;;;;;;4218546;34;20082;-67
2022/01/30 14:06:52;;;;;;;31.45;23.87;;;;;;;;;;4205325;34;20136;-69
2022/01/30 14:09:25;;;;;;;31.30;22.45;;;;;;;;;;4217508;34;20128;-66
2022/01/30 14:12:08;;;;;;;33.45;24.33;;;;;;;;;;4218726;34;20117;-66
2022/01/30 14:14:37;;;;;;;35.55;24.15;;;;;;;;;;4206129;34;20141;-67
2022/01/30 14:17:05;;;;;;;30.33;24.30;;;;;;;;;;4218669;34;20612;-67
2022/01/30 14:19:42;;;;;;;32.50;24.00;;;;;;;;;;4218883;34;20179;-67
2022/01/30 14:22:23;;;;;;;34.05;23.38;;;;;;;;;;4218112;34;20109;-68
2022/01/30 14:24:53;;;;;;;30.33;23.58;;;;;;;;;;4218283;34;20200;-65
2022/01/30 14:27:19;;;;;;;29.15;22.20;;;;;;;;;;4218585;34;20170;-66
2022/01/30 14:29:46;;;;;;;34.40;21.87;;;;;;;;;;4218445;34;20190;-67
2022/01/30 14:32:25;;;;;;;29.23;22.45;;;;;;;;;;4218469;34;20117;-69
2022/01/30 14:34:52;;;;;;;29.37;22.02;;;;;;;;;;4218400;34;20545;-63
2022/01/30 14:37:21;;;;;;;29.80;22.42;;;;;;;;;;4205511;34;20164;-64
2022/01/30 14:39:54;;;;;;;33.97;25.15;;;;;;;;;;4218621;34;20204;-66
2022/01/30 14:42:21;;;;;;;29.42;23.45;;;;;;;;;;4212442;34;20105;-64
2022/01/30 14:44:47;;;;;;;33.50;22.92;;;;;;;;;;4208281;34;20101;-65
2022/01/30 14:47:13;;;;;;;31.37;22.95;;;;;;;;;;4204558;34;20134;-64
2022/01/30 14:49:39;;;;;;;29.92;21.45;;;;;;;;;;4204592;34;20116;-64
2022/01/30 14:52:06;;;;;;;31.73;23.35;;;;;;;;;;4204401;34;20205;-66
2022/01/30 14:54:33;;;;;;;33.70;23.00;;;;;;;;;;4204652;34;20504;-66
2022/01/30 14:57:01;;;;;;;33.10;23.67;;;;;;;;;;4204500;34;20136;-65
2022/01/30 14:59:28;;;;;;;37.65;25.62;;;;;;;;;;4210739;34;20206;-66
2022/01/30 15:01:55;;;;;;;39.75;24.75;;;;;;;;;;4192818;34;20124;-67
2022/01/30 15:04:21;;;;;;;38.28;23.80;;;;;;;;;;4204300;34;20120;-64
2022/01/30 15:06:47;;;;;;;37.70;23.40;;;;;;;;;;4204249;34;20114;-65
2022/01/30 15:09:13;;;;;;;34.80;24.10;;;;;;;;;;4210143;34;20766;-65
2022/01/30 15:11:39;;;;;;;34.05;22.87;;;;;;;;;;4206939;33;20114;-66
2022/01/30 15:14:06;;;;;;;32.70;22.15;;;;;;;;;;4214459;33;20096;-65
2022/01/30 15:19:08;;;;;;;27.92;20.48;;;;;;;;;;4217113;34;20205;-66
2022/01/30 15:21:34;;;;;;;28.33;21.23;;;;;;;;;;4216510;34;20120;-63
2022/01/30 15:24:01;;;;;;;27.08;20.25;;;;;;;;;;4211477;34;20140;-67
2022/01/30 15:26:27;;;;;;;29.83;21.60;;;;;;;;;;4208425;34;20442;-65
2022/01/30 15:28:53;;;;;;;28.70;21.52;;;;;;;;;;4212255;34;20121;-67
2022/01/30 15:31:19;;;;;;;27.87;20.83;;;;;;;;;;4216524;34;20470;-66
2022/01/30 15:33:45;;;;;;;29.50;22.17;;;;;;;;;;4218087;34;20124;-64
2022/01/30 15:36:11;;;;;;;27.30;20.23;;;;;;;;;;4216468;34;20112;-65
2022/01/30 15:38:38;;;;;;;27.77;20.80;;;;;;;;;;4217873;34;20106;-65
2022/01/30 15:41:04;;;;;;;51.37;42.75;;;;;;;;;;4214234;34;20109;-65